createdAt,value
2016-12-28T00:00:13.619Z,82.02
2016-12-28T00:00:28.026Z,82.4
2016-12-28T00:00:42.476Z,82.27
2016-12-28T00:00:56.875Z,82.46
2016-12-28T00:01:11.262Z,82.46
2016-12-28T00:01:25.627Z,82.85
2016-12-28T00:01:40.056Z,82.65
2016-12-28T00:01:54.494Z,83.04
2016-12-28T00:02:08.897Z,82.75
2016-12-28T00:02:23.232Z,82.85
2016-12-28T00:02:37.622Z,83.34
2016-12-28T00:02:52.075Z,82.75
2016-12-28T00:03:06.427Z,83.04
2016-12-28T00:03:20.818Z,83.24
2016-12-28T00:03:35.198Z,82.85
2016-12-28T00:03:49.544Z,83.24
2016-12-28T00:04:03.854Z,82.95
2016-12-28T00:04:18.212Z,82.95
2016-12-28T00:04:32.555Z,83.34
2016-12-28T00:04:46.885Z,83.24
2016-12-28T00:05:01.195Z,83.34
2016-12-28T00:05:15.609Z,83.24
2016-12-28T00:05:29.966Z,83.72
2016-12-28T00:05:44.287Z,83.82
2016-12-28T00:05:58.683Z,83.72
2016-12-28T00:06:13.035Z,83.72
2016-12-28T00:06:27.484Z,83.72
2016-12-28T00:06:41.886Z,83.72
2016-12-28T00:06:56.246Z,83.63
2016-12-28T00:07:10.639Z,83.82
2016-12-28T00:07:25.012Z,84.11
2016-12-28T00:07:39.443Z,83.78
2016-12-28T00:07:53.788Z,84.46
2016-12-28T00:08:08.103Z,83.97
2016-12-28T00:08:22.449Z,84.21
2016-12-28T00:08:36.910Z,84.31
2016-12-28T00:08:51.336Z,83.97
2016-12-28T00:09:05.716Z,84.01
2016-12-28T00:09:20.063Z,84.21
2016-12-28T00:09:34.463Z,83.92
2016-12-28T00:09:48.849Z,84.11
2016-12-28T00:10:03.239Z,84.41
2016-12-28T00:10:17.624Z,84.27
2016-12-28T00:10:31.963Z,85.24
2016-12-28T00:10:46.815Z,85.24
2016-12-28T00:11:01.259Z,85.24
2016-12-28T00:11:15.711Z,85.33
2016-12-28T00:11:30.117Z,85.72
2016-12-28T00:11:44.427Z,85.92
2016-12-28T00:11:58.785Z,85.53
2016-12-28T00:12:13.132Z,85.92
2016-12-28T00:12:27.475Z,86.4
2016-12-28T00:12:41.806Z,86.6
2016-12-28T00:12:56.204Z,86.5
2016-12-28T00:13:10.545Z,86.55
2016-12-28T00:13:24.908Z,86.6
2016-12-28T00:13:39.297Z,86.21
2016-12-28T00:13:53.747Z,86.4
2016-12-28T00:14:08.134Z,86.01
2016-12-28T00:14:22.493Z,86.26
2016-12-28T00:14:36.942Z,86.65
2016-12-28T00:14:51.379Z,87.04
2016-12-28T00:15:05.763Z,86.75
2016-12-28T00:15:20.107Z,86.85
2016-12-28T00:15:34.475Z,86.16
2016-12-28T00:15:48.846Z,86.55
2016-12-28T00:16:03.189Z,86.65
2016-12-28T00:16:17.554Z,86.36
2016-12-28T00:16:31.922Z,87.04
2016-12-28T00:16:46.266Z,86.85
2016-12-28T00:17:00.700Z,87.04
2016-12-28T00:17:15.089Z,86.26
2016-12-28T00:17:29.549Z,86.26
2016-12-28T00:17:43.919Z,86.16
2016-12-28T00:17:58.261Z,86.07
2016-12-28T00:18:12.652Z,86.07
2016-12-28T00:18:27.048Z,86.26
2016-12-28T00:18:41.380Z,85.97
2016-12-28T00:18:55.732Z,85.78
2016-12-28T00:19:10.106Z,85.49
2016-12-28T00:19:24.487Z,85.68
2016-12-28T00:19:38.952Z,85.97
2016-12-28T00:19:53.301Z,85.49
2016-12-28T00:20:07.627Z,85.49
2016-12-28T00:20:21.980Z,84.66
2016-12-28T00:20:36.366Z,85.19
2016-12-28T00:20:50.756Z,85.19
2016-12-28T00:21:05.160Z,85.19
2016-12-28T00:21:19.535Z,84.94
2016-12-28T00:21:33.890Z,84.75
2016-12-28T00:21:48.299Z,84.66
2016-12-28T00:22:02.669Z,84.85
2016-12-28T00:22:17.079Z,85.14
2016-12-28T00:22:31.422Z,85.24
2016-12-28T00:22:45.804Z,84.94
2016-12-28T00:23:00.246Z,85.33
2016-12-28T00:23:14.699Z,85.53
2016-12-28T00:23:29.156Z,85.82
2016-12-28T00:23:43.597Z,85.39
2016-12-28T00:23:57.996Z,86.21
2016-12-28T00:24:12.407Z,85.97
2016-12-28T00:24:26.791Z,85.88
2016-12-28T00:24:41.171Z,86.36
2016-12-28T00:24:55.527Z,86.21
2016-12-28T00:25:09.902Z,86.01
2016-12-28T00:25:24.252Z,85.88
2016-12-28T00:25:38.645Z,86.3
2016-12-28T00:25:53.300Z,86.16
2016-12-28T00:26:07.686Z,86.3
2016-12-28T00:26:22.048Z,85.63
2016-12-28T00:26:36.452Z,86.11
2016-12-28T00:26:50.878Z,85.53
2016-12-28T00:27:05.290Z,86.01
2016-12-28T00:27:19.648Z,85.92
2016-12-28T00:27:34.038Z,85.92
2016-12-28T00:27:48.389Z,85.92
2016-12-28T00:28:02.717Z,85.92
2016-12-28T00:28:17.040Z,85.53
2016-12-28T00:28:31.391Z,85.63
2016-12-28T00:28:45.980Z,85.92
2016-12-28T00:29:00.337Z,86.69
2016-12-28T00:29:14.756Z,87.27
2016-12-28T00:29:29.191Z,87.37
2016-12-28T00:29:43.606Z,87.47
2016-12-28T00:29:58.031Z,87.57
2016-12-28T00:30:12.415Z,87.57
2016-12-28T00:30:26.819Z,87.47
2016-12-28T00:30:41.250Z,87.52
2016-12-28T00:30:55.563Z,87.91
2016-12-28T00:31:09.892Z,87.52
2016-12-28T00:31:24.277Z,87.91
2016-12-28T00:31:38.649Z,87.91
2016-12-28T00:31:53.007Z,87.62
2016-12-28T00:32:07.357Z,87.62
2016-12-28T00:32:21.702Z,87.72
2016-12-28T00:32:36.098Z,87.72
2016-12-28T00:32:50.470Z,87.62
2016-12-28T00:33:04.892Z,87.33
2016-12-28T00:33:19.550Z,87.62
2016-12-28T00:33:33.959Z,87.62
2016-12-28T00:33:48.396Z,87.62
2016-12-28T00:34:02.889Z,87.52
2016-12-28T00:34:17.358Z,87.76
2016-12-28T00:34:31.690Z,87.76
2016-12-28T00:34:46.064Z,87.76
2016-12-28T00:35:00.438Z,87.62
2016-12-28T00:35:14.809Z,88.05
2016-12-28T00:35:29.201Z,87.43
2016-12-28T00:35:43.586Z,87.27
2016-12-28T00:35:58.050Z,87.47
2016-12-28T00:36:12.375Z,87.57
2016-12-28T00:36:26.725Z,87.52
2016-12-28T00:36:41.077Z,87.57
2016-12-28T00:36:55.480Z,86.89
2016-12-28T00:37:09.912Z,86.99
2016-12-28T00:37:24.260Z,87.57
2016-12-28T00:37:38.620Z,87.57
2016-12-28T00:37:52.990Z,87.27
2016-12-28T00:38:07.361Z,87.47
2016-12-28T00:38:21.733Z,87.52
2016-12-28T00:38:36.121Z,87.33
2016-12-28T00:38:50.540Z,87.52
2016-12-28T00:39:04.983Z,87.57
2016-12-28T00:39:19.494Z,87.33
2016-12-28T00:39:33.834Z,87.33
2016-12-28T00:39:48.951Z,87.43
2016-12-28T00:40:03.321Z,87.23
2016-12-28T00:40:17.707Z,87.33
2016-12-28T00:40:32.167Z,87.43
2016-12-28T00:40:46.506Z,87.04
2016-12-28T00:41:01.166Z,87.04
2016-12-28T00:41:15.539Z,87.23
2016-12-28T00:41:29.927Z,87.23
2016-12-28T00:41:44.292Z,87.72
2016-12-28T00:41:58.706Z,87.52
2016-12-28T00:42:13.113Z,87.52
2016-12-28T00:42:27.465Z,87.43
2016-12-28T00:42:41.835Z,87.33
2016-12-28T00:42:56.261Z,87.52
2016-12-28T00:43:10.687Z,87.82
2016-12-28T00:43:25.082Z,87.72
2016-12-28T00:43:39.440Z,87.91
2016-12-28T00:43:53.923Z,87.72
2016-12-28T00:44:08.418Z,88.3
2016-12-28T00:44:22.801Z,88.4
2016-12-28T00:44:37.135Z,88.1
2016-12-28T00:44:51.433Z,88.2
2016-12-28T00:45:05.756Z,88.88
2016-12-28T00:45:20.171Z,88.69
2016-12-28T00:45:35.315Z,88.79
2016-12-28T00:45:49.699Z,89.07
2016-12-28T00:46:04.090Z,89.03
2016-12-28T00:46:18.433Z,88.65
2016-12-28T00:46:32.903Z,89.23
2016-12-28T00:46:47.238Z,89.52
2016-12-28T00:47:01.654Z,89.71
2016-12-28T00:47:16.042Z,89.52
2016-12-28T00:47:30.449Z,89.61
2016-12-28T00:47:44.833Z,89.32
2016-12-28T00:47:59.248Z,89.52
2016-12-28T00:48:13.662Z,89.71
2016-12-28T00:48:28.027Z,89.61
2016-12-28T00:48:42.492Z,89.23
2016-12-28T00:48:56.893Z,89.27
2016-12-28T00:49:11.226Z,88.65
2016-12-28T00:49:25.601Z,88.84
2016-12-28T00:49:39.992Z,89.23
2016-12-28T00:49:54.395Z,89.13
2016-12-28T00:50:08.881Z,89.42
2016-12-28T00:50:23.363Z,89.13
2016-12-28T00:50:37.692Z,88.93
2016-12-28T00:50:52.054Z,88.88
2016-12-28T00:51:06.450Z,88.98
2016-12-28T00:51:20.945Z,88.74
2016-12-28T00:51:35.366Z,88.98
2016-12-28T00:51:49.734Z,89.07
2016-12-28T00:52:04.185Z,88.98
2016-12-28T00:52:18.574Z,88.88
2016-12-28T00:52:32.929Z,88.79
2016-12-28T00:52:47.290Z,89.07
2016-12-28T00:53:01.711Z,88.98
2016-12-28T00:53:16.081Z,88.98
2016-12-28T00:53:30.415Z,88.98
2016-12-28T00:53:44.791Z,88.69
2016-12-28T00:53:59.165Z,89.07
2016-12-28T00:54:13.538Z,88.49
2016-12-28T00:54:27.864Z,88.69
2016-12-28T00:54:42.282Z,88.69
2016-12-28T00:54:56.682Z,88.59
2016-12-28T00:55:11.066Z,88.3
2016-12-28T00:55:25.464Z,88.01
2016-12-28T00:55:39.905Z,88.2
2016-12-28T00:55:54.312Z,88.1
2016-12-28T00:56:09.213Z,88.3
2016-12-28T00:56:23.599Z,88.1
2016-12-28T00:56:38.018Z,87.82
2016-12-28T00:56:52.376Z,88.1
2016-12-28T00:57:06.721Z,87.72
2016-12-28T00:57:21.150Z,87.62
2016-12-28T00:57:35.488Z,87.62
2016-12-28T00:57:49.834Z,86.94
2016-12-28T00:58:04.227Z,87.33
2016-12-28T00:58:18.651Z,87.52
2016-12-28T00:58:33.056Z,87.52
2016-12-28T00:58:47.502Z,87.23
2016-12-28T00:59:01.866Z,86.94
2016-12-28T00:59:16.206Z,87.62
2016-12-28T00:59:30.549Z,87.52
2016-12-28T00:59:44.936Z,87.91
2016-12-28T00:59:59.387Z,88.01
2016-12-28T01:00:13.767Z,87.82
2016-12-28T01:00:28.181Z,88.34
2016-12-28T01:00:42.577Z,88.34
2016-12-28T01:00:56.936Z,88.44
2016-12-28T01:01:11.379Z,88.3
2016-12-28T01:01:25.756Z,88.24
2016-12-28T01:01:40.153Z,88.93
2016-12-28T01:01:54.546Z,88.44
2016-12-28T01:02:08.915Z,89.03
2016-12-28T01:02:23.326Z,89.76
2016-12-28T01:02:37.673Z,89.61
2016-12-28T01:02:52.085Z,89.9
2016-12-28T01:03:06.461Z,90.19
2016-12-28T01:03:20.827Z,90.24
2016-12-28T01:03:35.212Z,90.63
2016-12-28T01:03:49.614Z,90.44
2016-12-28T01:04:04.008Z,90.53
2016-12-28T01:04:18.477Z,90.44
2016-12-28T01:04:32.901Z,90.44
2016-12-28T01:04:47.293Z,90.05
2016-12-28T01:05:01.675Z,89.76
2016-12-28T01:05:16.008Z,89.95
2016-12-28T01:05:30.370Z,90.44
2016-12-28T01:05:44.712Z,90.92
2016-12-28T01:05:59.074Z,91.02
2016-12-28T01:06:13.497Z,90.92
2016-12-28T01:06:27.875Z,89.76
2016-12-28T01:06:42.236Z,89.27
2016-12-28T01:06:56.639Z,88.79
2016-12-28T01:07:11.065Z,88.3
2016-12-28T01:07:25.467Z,88.3
2016-12-28T01:07:39.867Z,88.59
2016-12-28T01:07:54.270Z,87.82
2016-12-28T01:08:08.630Z,88.3
2016-12-28T01:08:22.962Z,88.2
2016-12-28T01:08:37.396Z,88.2
2016-12-28T01:08:51.709Z,88.49
2016-12-28T01:09:06.138Z,88.98
2016-12-28T01:09:20.567Z,89.17
2016-12-28T01:09:34.900Z,89.07
2016-12-28T01:09:49.303Z,89.07
2016-12-28T01:10:03.640Z,89.95
2016-12-28T01:10:18.055Z,90.14
2016-12-28T01:10:32.494Z,89.52
2016-12-28T01:10:46.969Z,89.76
2016-12-28T01:11:01.287Z,89.17
2016-12-28T01:11:15.971Z,89.56
2016-12-28T01:11:30.405Z,89.27
2016-12-28T01:11:44.878Z,88.79
2016-12-28T01:11:59.326Z,89.13
2016-12-28T01:12:13.647Z,88.93
2016-12-28T01:12:27.961Z,88.65
2016-12-28T01:12:42.294Z,89.03
2016-12-28T01:12:56.701Z,88.93
2016-12-28T01:13:11.057Z,88.74
2016-12-28T01:13:25.482Z,88.84
2016-12-28T01:13:39.852Z,89.03
2016-12-28T01:13:54.281Z,88.84
2016-12-28T01:14:08.608Z,89.13
2016-12-28T01:14:22.959Z,89.71
2016-12-28T01:14:37.417Z,89.52
2016-12-28T01:14:51.780Z,89.61
2016-12-28T01:15:06.195Z,89.71
2016-12-28T01:15:20.581Z,90
2016-12-28T01:15:34.920Z,90
2016-12-28T01:15:50.008Z,90.39
2016-12-28T01:16:04.418Z,90.2
2016-12-28T01:16:18.860Z,90.1
2016-12-28T01:16:33.174Z,90.39
2016-12-28T01:16:47.600Z,90.2
2016-12-28T01:17:01.988Z,90.97
2016-12-28T01:17:16.363Z,90.68
2016-12-28T01:17:30.737Z,91.27
2016-12-28T01:17:45.139Z,91.36
2016-12-28T01:17:59.540Z,91.46
2016-12-28T01:18:13.977Z,90.97
2016-12-28T01:18:28.345Z,90.78
2016-12-28T01:18:42.725Z,90.48
2016-12-28T01:18:57.155Z,90.88
2016-12-28T01:19:11.614Z,90.68
2016-12-28T01:19:26.011Z,90.93
2016-12-28T01:19:40.391Z,90.88
2016-12-28T01:19:54.773Z,90.88
2016-12-28T01:20:09.210Z,90.88
2016-12-28T01:20:23.550Z,90.25
2016-12-28T01:20:37.919Z,90.58
2016-12-28T01:20:52.289Z,90
2016-12-28T01:21:06.710Z,89.23
2016-12-28T01:21:21.075Z,89.71
2016-12-28T01:21:35.489Z,89.32
2016-12-28T01:21:49.932Z,89.32
2016-12-28T01:22:04.332Z,89.52
2016-12-28T01:22:18.690Z,89.71
2016-12-28T01:22:32.965Z,89.71
2016-12-28T01:22:47.326Z,90
2016-12-28T01:23:01.724Z,90.58
2016-12-28T01:23:16.108Z,90.06
2016-12-28T01:23:31.262Z,91.12
2016-12-28T01:23:45.597Z,90.83
2016-12-28T01:23:59.945Z,90.73
2016-12-28T01:24:14.306Z,90.83
2016-12-28T01:24:28.688Z,91.17
2016-12-28T01:24:43.107Z,91.31
2016-12-28T01:24:57.493Z,90.93
2016-12-28T01:25:11.956Z,91.12
2016-12-28T01:25:26.353Z,90.73
2016-12-28T01:25:40.790Z,90.73
2016-12-28T01:25:55.172Z,90.83
2016-12-28T01:26:09.577Z,90.83
2016-12-28T01:26:24.255Z,90.93
2016-12-28T01:26:38.635Z,90.73
2016-12-28T01:26:52.976Z,91.02
2016-12-28T01:27:07.361Z,90.83
2016-12-28T01:27:21.778Z,90.93
2016-12-28T01:27:36.177Z,90.83
2016-12-28T01:27:50.623Z,90.83
2016-12-28T01:28:04.956Z,90.73
2016-12-28T01:28:19.352Z,90.83
2016-12-28T01:28:33.762Z,90.54
2016-12-28T01:28:48.162Z,90.83
2016-12-28T01:29:02.592Z,90.83
2016-12-28T01:29:16.935Z,90.64
2016-12-28T01:29:31.290Z,90.93
2016-12-28T01:29:45.684Z,90.44
2016-12-28T01:30:00.000Z,90.34
2016-12-28T01:30:14.348Z,89.96
2016-12-28T01:30:28.701Z,89.28
2016-12-28T01:30:43.046Z,89.57
2016-12-28T01:30:57.409Z,88.45
2016-12-28T01:31:11.802Z,88.41
2016-12-28T01:31:26.196Z,89.09
2016-12-28T01:31:40.503Z,89.47
2016-12-28T01:31:54.917Z,89.71
2016-12-28T01:32:09.292Z,89.67
2016-12-28T01:32:23.608Z,89.47
2016-12-28T01:32:38.024Z,89.47
2016-12-28T01:32:52.416Z,89.47
2016-12-28T01:33:06.794Z,89.96
2016-12-28T01:33:21.156Z,89.86
2016-12-28T01:33:35.629Z,90.3
2016-12-28T01:33:50.019Z,90.39
2016-12-28T01:34:04.448Z,90.54
2016-12-28T01:34:18.867Z,90.54
2016-12-28T01:34:33.206Z,90.44
2016-12-28T01:34:47.532Z,90.64
2016-12-28T01:35:01.976Z,90.06
2016-12-28T01:35:16.396Z,90.06
2016-12-28T01:35:30.768Z,89.57
2016-12-28T01:35:45.235Z,89.96
2016-12-28T01:35:59.600Z,89.86
2016-12-28T01:36:13.980Z,89.76
2016-12-28T01:36:28.381Z,89.96
2016-12-28T01:36:42.722Z,89.76
2016-12-28T01:36:57.033Z,89.57
2016-12-28T01:37:11.444Z,89.18
2016-12-28T01:37:25.766Z,89.28
2016-12-28T01:37:40.076Z,89.37
2016-12-28T01:37:54.447Z,89.37
2016-12-28T01:38:08.838Z,89.18
2016-12-28T01:38:23.221Z,89.18
2016-12-28T01:38:37.599Z,89.18
2016-12-28T01:38:52.018Z,89.47
2016-12-28T01:39:06.436Z,89.47
2016-12-28T01:39:20.839Z,89.37
2016-12-28T01:39:35.325Z,89.57
2016-12-28T01:39:49.733Z,89.18
2016-12-28T01:40:04.164Z,89.09
2016-12-28T01:40:18.587Z,89.18
2016-12-28T01:40:32.929Z,89.09
2016-12-28T01:40:47.379Z,88.89
2016-12-28T01:41:01.780Z,88.99
2016-12-28T01:41:16.242Z,88.89
2016-12-28T01:41:30.975Z,88.89
2016-12-28T01:41:45.342Z,88.89
2016-12-28T01:41:59.711Z,88.93
2016-12-28T01:42:14.076Z,88.51
2016-12-28T01:42:28.462Z,88.7
2016-12-28T01:42:42.858Z,88.79
2016-12-28T01:42:57.298Z,88.84
2016-12-28T01:43:11.692Z,88.51
2016-12-28T01:43:26.163Z,88.7
2016-12-28T01:43:40.533Z,88.99
2016-12-28T01:43:54.874Z,88.7
2016-12-28T01:44:09.213Z,89.13
2016-12-28T01:44:23.582Z,89.09
2016-12-28T01:44:37.925Z,89.18
2016-12-28T01:44:52.349Z,89.61
2016-12-28T01:45:06.743Z,89.57
2016-12-28T01:45:21.180Z,90
2016-12-28T01:45:35.525Z,89.71
2016-12-28T01:45:49.890Z,90
2016-12-28T01:46:04.281Z,89.86
2016-12-28T01:46:18.637Z,90.16
2016-12-28T01:46:33.025Z,89.96
2016-12-28T01:46:47.347Z,89.67
2016-12-28T01:47:01.701Z,89.96
2016-12-28T01:47:16.065Z,89.76
2016-12-28T01:47:30.478Z,89.96
2016-12-28T01:47:44.880Z,89.96
2016-12-28T01:47:59.202Z,89.96
2016-12-28T01:48:13.555Z,89.96
2016-12-28T01:48:27.965Z,90.06
2016-12-28T01:48:42.333Z,90.06
2016-12-28T01:48:56.728Z,89.67
2016-12-28T01:49:11.139Z,89.76
2016-12-28T01:49:25.540Z,89.47
2016-12-28T01:49:39.907Z,89.76
2016-12-28T01:49:54.318Z,89.76
2016-12-28T01:50:08.729Z,89.76
2016-12-28T01:50:23.089Z,89.96
2016-12-28T01:50:37.507Z,89.96
2016-12-28T01:50:51.858Z,90.06
2016-12-28T01:51:06.253Z,90.25
2016-12-28T01:51:20.638Z,90.16
2016-12-28T01:51:35.087Z,90.34
2016-12-28T01:51:49.486Z,90.06
2016-12-28T01:52:03.942Z,90.06
2016-12-28T01:52:18.401Z,89.76
2016-12-28T01:52:32.826Z,89.96
2016-12-28T01:52:47.172Z,89.86
2016-12-28T01:53:01.547Z,90.54
2016-12-28T01:53:15.935Z,90.34
2016-12-28T01:53:30.298Z,90.16
2016-12-28T01:53:44.687Z,90.06
2016-12-28T01:53:59.014Z,91.02
2016-12-28T01:54:13.317Z,90.54
2016-12-28T01:54:27.695Z,90.83
2016-12-28T01:54:42.103Z,90.73
2016-12-28T01:54:56.529Z,91.41
2016-12-28T01:55:10.933Z,91.27
2016-12-28T01:55:25.325Z,91.71
2016-12-28T01:55:39.763Z,91.99
2016-12-28T01:55:54.163Z,91.99
2016-12-28T01:56:08.488Z,92.38
2016-12-28T01:56:22.863Z,92.67
2016-12-28T01:56:37.299Z,92.63
2016-12-28T01:56:51.670Z,92.53
2016-12-28T01:57:06.049Z,92.92
2016-12-28T01:57:20.432Z,93.4
2016-12-28T01:57:34.833Z,93.4
2016-12-28T01:57:49.258Z,93.98
2016-12-28T01:58:03.652Z,93.7
2016-12-28T01:58:18.072Z,93.7
2016-12-28T01:58:32.497Z,93.6
2016-12-28T01:58:46.815Z,93.7
2016-12-28T01:59:01.215Z,93.6
2016-12-28T01:59:15.538Z,93.79
2016-12-28T01:59:29.949Z,94.08
2016-12-28T01:59:44.301Z,93.7
2016-12-28T01:59:58.706Z,93.79
2016-12-28T02:00:13.093Z,93.7
2016-12-28T02:00:27.431Z,93.79
2016-12-28T02:00:41.781Z,93.79
2016-12-28T02:00:56.105Z,93.88
2016-12-28T02:01:10.412Z,93.7
2016-12-28T02:01:24.768Z,93.7
2016-12-28T02:01:39.119Z,93.6
2016-12-28T02:01:53.525Z,93.88
2016-12-28T02:02:07.876Z,93.88
2016-12-28T02:02:22.204Z,94.08
2016-12-28T02:02:36.529Z,93.88
2016-12-28T02:02:50.857Z,94.27
2016-12-28T02:03:05.215Z,94.37
2016-12-28T02:03:19.615Z,94.57
2016-12-28T02:03:33.969Z,94.37
2016-12-28T02:03:48.448Z,95
2016-12-28T02:04:02.848Z,94.62
2016-12-28T02:04:17.190Z,95.2
2016-12-28T02:04:31.585Z,95
2016-12-28T02:04:45.987Z,95.39
2016-12-28T02:05:00.454Z,95.29
2016-12-28T02:05:14.836Z,95.87
2016-12-28T02:05:29.222Z,95.78
2016-12-28T02:05:43.582Z,95.78
2016-12-28T02:05:57.948Z,95.87
2016-12-28T02:06:12.305Z,95.78
2016-12-28T02:06:26.707Z,95.2
2016-12-28T02:06:41.374Z,95.78
2016-12-28T02:06:55.736Z,95.78
2016-12-28T02:07:10.132Z,96.07
2016-12-28T02:07:24.463Z,96.07
2016-12-28T02:07:38.853Z,95.87
2016-12-28T02:07:53.196Z,95.87
2016-12-28T02:08:07.528Z,95.68
2016-12-28T02:08:21.909Z,95.29
2016-12-28T02:08:36.290Z,95.39
2016-12-28T02:08:50.699Z,95.87
2016-12-28T02:09:05.139Z,95.68
2016-12-28T02:09:19.533Z,95.78
2016-12-28T02:09:33.971Z,95.58
2016-12-28T02:09:48.458Z,95.78
2016-12-28T02:10:02.810Z,95.87
2016-12-28T02:10:17.149Z,95.49
2016-12-28T02:10:31.635Z,95.68
2016-12-28T02:10:46.016Z,95.58
2016-12-28T02:11:00.630Z,95.49
2016-12-28T02:11:14.995Z,95.39
2016-12-28T02:11:29.314Z,95.78
2016-12-28T02:11:43.893Z,95.39
2016-12-28T02:11:58.238Z,95
2016-12-28T02:12:12.612Z,95
2016-12-28T02:12:26.995Z,94.32
2016-12-28T02:12:41.355Z,94.52
2016-12-28T02:12:55.829Z,94.42
2016-12-28T02:13:10.168Z,94.32
2016-12-28T02:13:24.580Z,94.32
2016-12-28T02:13:39.040Z,94.32
2016-12-28T02:13:53.404Z,94.47
2016-12-28T02:14:07.836Z,94.08
2016-12-28T02:14:22.213Z,94.27
2016-12-28T02:14:36.613Z,95.05
2016-12-28T02:14:50.985Z,95.05
2016-12-28T02:15:05.423Z,94.76
2016-12-28T02:15:19.799Z,94.76
2016-12-28T02:15:34.209Z,94.66
2016-12-28T02:15:48.613Z,94.85
2016-12-28T02:16:02.964Z,94.95
2016-12-28T02:16:17.414Z,94.95
2016-12-28T02:16:31.758Z,94.95
2016-12-28T02:16:46.190Z,94.95
2016-12-28T02:17:00.586Z,94.76
2016-12-28T02:17:14.949Z,95
2016-12-28T02:17:29.295Z,94.76
2016-12-28T02:17:43.681Z,95.05
2016-12-28T02:17:58.109Z,94.18
2016-12-28T02:18:12.517Z,94.13
2016-12-28T02:18:26.938Z,94.08
2016-12-28T02:18:41.293Z,94.66
2016-12-28T02:18:55.669Z,94.42
2016-12-28T02:19:10.018Z,94.37
2016-12-28T02:19:24.452Z,94.04
2016-12-28T02:19:38.845Z,93.88
2016-12-28T02:19:53.167Z,93.88
2016-12-28T02:20:07.599Z,93.4
2016-12-28T02:20:21.980Z,93.35
2016-12-28T02:20:36.375Z,93.16
2016-12-28T02:20:50.801Z,93.94
2016-12-28T02:21:05.169Z,93.74
2016-12-28T02:21:19.525Z,93.88
2016-12-28T02:21:33.954Z,93.88
2016-12-28T02:21:48.379Z,93.55
2016-12-28T02:22:02.757Z,93.07
2016-12-28T02:22:17.113Z,93.16
2016-12-28T02:22:31.523Z,92.92
2016-12-28T02:22:45.967Z,92.68
2016-12-28T02:23:00.363Z,93.11
2016-12-28T02:23:14.792Z,93.21
2016-12-28T02:23:29.167Z,92.68
2016-12-28T02:23:43.513Z,92.82
2016-12-28T02:23:57.880Z,92.97
2016-12-28T02:24:12.215Z,93.11
2016-12-28T02:24:26.661Z,93.5
2016-12-28T02:24:41.017Z,92.72
2016-12-28T02:24:55.410Z,93.11
2016-12-28T02:25:09.846Z,93.5
2016-12-28T02:25:24.243Z,93.88
2016-12-28T02:25:38.650Z,94.08
2016-12-28T02:25:52.949Z,94.23
2016-12-28T02:26:07.289Z,94.81
2016-12-28T02:26:21.623Z,94.81
2016-12-28T02:26:36.073Z,95.2
2016-12-28T02:26:50.672Z,95.2
2016-12-28T02:27:05.056Z,95.39
2016-12-28T02:27:19.447Z,95.49
2016-12-28T02:27:33.822Z,95.58
2016-12-28T02:27:48.255Z,95.39
2016-12-28T02:28:02.539Z,95.58
2016-12-28T02:28:16.940Z,95.68
2016-12-28T02:28:31.352Z,95.78
2016-12-28T02:28:45.752Z,95.87
2016-12-28T02:29:00.180Z,95.68
2016-12-28T02:29:14.642Z,96.17
2016-12-28T02:29:29.045Z,95.78
2016-12-28T02:29:43.388Z,96.17
2016-12-28T02:29:57.730Z,96.94
2016-12-28T02:30:12.148Z,96.89
2016-12-28T02:30:26.552Z,97.08
2016-12-28T02:30:40.912Z,97.67
2016-12-28T02:30:55.277Z,97.38
2016-12-28T02:31:09.644Z,97.96
2016-12-28T02:31:23.993Z,98.05
2016-12-28T02:31:38.437Z,98.15
2016-12-28T02:31:52.867Z,98.35
2016-12-28T02:32:07.243Z,98.3
2016-12-28T02:32:21.663Z,98.49
2016-12-28T02:32:36.083Z,98.88
2016-12-28T02:32:50.449Z,99.16
2016-12-28T02:33:04.837Z,98.88
2016-12-28T02:33:19.244Z,98.68
2016-12-28T02:33:33.617Z,98.78
2016-12-28T02:33:47.965Z,99.07
2016-12-28T02:34:02.411Z,99.07
2016-12-28T02:34:16.825Z,99.07
2016-12-28T02:34:31.221Z,99.16
2016-12-28T02:34:45.650Z,98.58
2016-12-28T02:35:00.044Z,98.68
2016-12-28T02:35:14.490Z,99.36
2016-12-28T02:35:28.943Z,99.16
2016-12-28T02:35:43.297Z,99.46
2016-12-28T02:35:57.706Z,99.36
2016-12-28T02:36:12.003Z,99.07
2016-12-28T02:36:26.354Z,99.65
2016-12-28T02:36:40.723Z,99.65
2016-12-28T02:36:55.042Z,99.46
2016-12-28T02:37:09.375Z,99.36
2016-12-28T02:37:23.720Z,99.26
2016-12-28T02:37:38.067Z,99.26
2016-12-28T02:37:52.442Z,98.88
2016-12-28T02:38:06.808Z,99.16
2016-12-28T02:38:21.177Z,98.78
2016-12-28T02:38:35.479Z,98.88
2016-12-28T02:38:49.888Z,98.39
2016-12-28T02:39:04.268Z,98.3
2016-12-28T02:39:18.676Z,98.49
2016-12-28T02:39:33.056Z,98.2
2016-12-28T02:39:47.423Z,98.39
2016-12-28T02:40:01.828Z,98.3
2016-12-28T02:40:16.203Z,98.2
2016-12-28T02:40:30.530Z,97.52
2016-12-28T02:40:44.868Z,98
2016-12-28T02:40:59.207Z,97.91
2016-12-28T02:41:13.565Z,98.1
2016-12-28T02:41:28.016Z,97.62
2016-12-28T02:41:42.382Z,97.62
2016-12-28T02:41:57.021Z,97.42
2016-12-28T02:42:11.398Z,97.23
2016-12-28T02:42:25.811Z,97.23
2016-12-28T02:42:40.198Z,97.72
2016-12-28T02:42:54.662Z,97.23
2016-12-28T02:43:09.087Z,97.23
2016-12-28T02:43:23.402Z,96.94
2016-12-28T02:43:37.769Z,97.04
2016-12-28T02:43:52.114Z,96.94
2016-12-28T02:44:06.454Z,97.04
2016-12-28T02:44:20.875Z,96.94
2016-12-28T02:44:35.245Z,97.52
2016-12-28T02:44:49.647Z,97.23
2016-12-28T02:45:04.117Z,97.04
2016-12-28T02:45:18.612Z,97.04
2016-12-28T02:45:32.968Z,96.94
2016-12-28T02:45:47.312Z,97.33
2016-12-28T02:46:01.689Z,97.23
2016-12-28T02:46:16.078Z,97.04
2016-12-28T02:46:30.450Z,96.84
2016-12-28T02:46:44.903Z,96.65
2016-12-28T02:46:59.266Z,96.65
2016-12-28T02:47:13.588Z,96.84
2016-12-28T02:47:28.063Z,96.94
2016-12-28T02:47:42.449Z,96.55
2016-12-28T02:47:56.806Z,96.65
2016-12-28T02:48:11.174Z,96.26
2016-12-28T02:48:25.555Z,96.36
2016-12-28T02:48:39.961Z,96.26
2016-12-28T02:48:54.324Z,95.73
2016-12-28T02:49:08.751Z,95.83
2016-12-28T02:49:23.097Z,96.5
2016-12-28T02:49:37.479Z,95.92
2016-12-28T02:49:51.938Z,96.5
2016-12-28T02:50:06.364Z,95.83
2016-12-28T02:50:20.753Z,96.22
2016-12-28T02:50:35.107Z,96.12
2016-12-28T02:50:49.415Z,95.64
2016-12-28T02:51:03.857Z,95.83
2016-12-28T02:51:18.179Z,95.83
2016-12-28T02:51:32.614Z,95.92
2016-12-28T02:51:46.902Z,95.73
2016-12-28T02:52:01.310Z,95.73
2016-12-28T02:52:15.639Z,96.12
2016-12-28T02:52:30.088Z,95.73
2016-12-28T02:52:44.448Z,96.02
2016-12-28T02:52:58.855Z,96.02
2016-12-28T02:53:13.334Z,95.92
2016-12-28T02:53:27.705Z,96.02
2016-12-28T02:53:42.041Z,95.54
2016-12-28T02:53:56.435Z,95.54
2016-12-28T02:54:10.766Z,96.12
2016-12-28T02:54:25.110Z,96.02
2016-12-28T02:54:39.507Z,95.44
2016-12-28T02:54:53.953Z,95.54
2016-12-28T02:55:08.321Z,95.73
2016-12-28T02:55:22.656Z,95.64
2016-12-28T02:55:37.075Z,95.49
2016-12-28T02:55:51.466Z,95.68
2016-12-28T02:56:05.836Z,95.1
2016-12-28T02:56:20.213Z,95.2
2016-12-28T02:56:34.536Z,94.9
2016-12-28T02:56:48.909Z,95
2016-12-28T02:57:03.541Z,94.81
2016-12-28T02:57:17.937Z,95.1
2016-12-28T02:57:32.264Z,94.62
2016-12-28T02:57:46.649Z,94.52
2016-12-28T02:58:01.011Z,94.04
2016-12-28T02:58:15.432Z,94.32
2016-12-28T02:58:29.813Z,94.32
2016-12-28T02:58:44.162Z,94.42
2016-12-28T02:58:58.579Z,94.52
2016-12-28T02:59:13.059Z,94.23
2016-12-28T02:59:27.492Z,93.84
2016-12-28T02:59:41.923Z,94.04
2016-12-28T02:59:56.365Z,94.37
2016-12-28T03:00:10.698Z,94.96
2016-12-28T03:00:25.028Z,95.39
2016-12-28T03:00:39.396Z,96.07
2016-12-28T03:00:53.794Z,95.78
2016-12-28T03:01:08.163Z,96.7
2016-12-28T03:01:22.537Z,97.08
2016-12-28T03:01:37.170Z,97.47
2016-12-28T03:01:51.570Z,97.67
2016-12-28T03:02:06.007Z,97.96
2016-12-28T03:02:20.408Z,98.73
2016-12-28T03:02:34.826Z,98.44
2016-12-28T03:02:49.144Z,98.54
2016-12-28T03:03:03.438Z,99.41
2016-12-28T03:03:17.807Z,99.21
2016-12-28T03:03:32.177Z,99.12
2016-12-28T03:03:46.531Z,98.78
2016-12-28T03:04:00.916Z,98.97
2016-12-28T03:04:15.342Z,98.83
2016-12-28T03:04:29.724Z,98.97
2016-12-28T03:04:44.127Z,99.07
2016-12-28T03:04:58.538Z,99.07
2016-12-28T03:05:12.936Z,99.26
2016-12-28T03:05:27.311Z,99.26
2016-12-28T03:05:41.725Z,99.16
2016-12-28T03:05:56.124Z,99.26
2016-12-28T03:06:10.516Z,99.46
2016-12-28T03:06:24.903Z,99.74